sensor_id;sensor_type;location;lat;lon;timestamp;temperature;humidity
21121;DHT22;12519;43.318;21.898;2022-10-04T00:03:11;14.7;92.0
21121;DHT22;12519;43.318;21.898;2022-10-04T00:08:25;14.7;92.0
21121;DHT22;12519;43.318;21.898;2022-10-04T00:13:25;14.6;92.0
21121;DHT22;12519;43.318;21.898;2022-10-04T00:18:23;14.6;92.0
21121;DHT22;12519;43.318;21.898;2022-10-04T00:24:21;14.5;93.0
21121;DHT22;12519;43.318;21.898;2022-10-04T00:29:31;14.4;92.0
21121;DHT22;12519;43.318;21.898;2022-10-04T00:34:50;14.4;92.0
21121;DHT22;12519;43.318;21.898;2022-10-04T00:39:41;14.4;92.0
21121;DHT22;12519;43.318;21.898;2022-10-04T00:44:44;14.4;92.0
21121;DHT22;12519;43.318;21.898;2022-10-04T00:49:39;14.2;93.0
21121;DHT22;12519;43.318;21.898;2022-10-04T00:54:37;14.2;93.0
21121;DHT22;12519;43.318;21.898;2022-10-04T00:59:34;14.0;94.0
21121;DHT22;12519;43.318;21.898;2022-10-04T01:04:34;14.0;94.0
21121;DHT22;12519;43.318;21.898;2022-10-04T01:09:26;13.9;94.0
21121;DHT22;12519;43.318;21.898;2022-10-04T01:14:35;13.9;94.0
21121;DHT22;12519;43.318;21.898;2022-10-04T01:19:52;13.8;95.0
21121;DHT22;12519;43.318;21.898;2022-10-04T01:24:35;13.8;95.0
21121;DHT22;12519;43.318;21.898;2022-10-04T01:29:18;13.7;95.0
21121;DHT22;12519;43.318;21.898;2022-10-04T01:34:07;13.7;95.0
21121;DHT22;12519;43.318;21.898;2022-10-04T01:38:49;13.7;95.0
21121;DHT22;12519;43.318;21.898;2022-10-04T01:43:36;13.6;94.0
21121;DHT22;12519;43.318;21.898;2022-10-04T01:48:29;13.6;94.0
21121;DHT22;12519;43.318;21.898;2022-10-04T01:53:25;13.9;94.0
21121;DHT22;12519;43.318;21.898;2022-10-04T01:58:12;13.9;94.0
21121;DHT22;12519;43.318;21.898;2022-10-04T02:03:02;14.2;94.0
21121;DHT22;12519;43.318;21.898;2022-10-04T02:07:49;14.2;94.0
21121;DHT22;12519;43.318;21.898;2022-10-04T02:12:30;14.3;93.0
21121;DHT22;12519;43.318;21.898;2022-10-04T02:17:11;14.3;93.0
21121;DHT22;12519;43.318;21.898;2022-10-04T02:21:49;14.4;92.0
21121;DHT22;12519;43.318;21.898;2022-10-04T02:26:28;14.4;92.0
21121;DHT22;12519;43.318;21.898;2022-10-04T02:31:07;14.4;92.0
21121;DHT22;12519;43.318;21.898;2022-10-04T02:35:47;14.4;92.0
21121;DHT22;12519;43.318;21.898;2022-10-04T02:40:32;14.3;92.0
21121;DHT22;12519;43.318;21.898;2022-10-04T02:45:23;14.3;92.0
21121;DHT22;12519;43.318;21.898;2022-10-04T02:50:22;14.2;92.0
21121;DHT22;12519;43.318;21.898;2022-10-04T02:55:19;14.2;92.0
21121;DHT22;12519;43.318;21.898;2022-10-04T03:00:18;14.2;92.0
21121;DHT22;12519;43.318;21.898;2022-10-04T03:05:07;14.2;92.0
21121;DHT22;12519;43.318;21.898;2022-10-04T03:09:50;14.2;92.0
21121;DHT22;12519;43.318;21.898;2022-10-04T03:14:30;14.2;92.0
21121;DHT22;12519;43.318;21.898;2022-10-04T03:19:12;14.1;92.0
21121;DHT22;12519;43.318;21.898;2022-10-04T03:23:56;14.1;92.0
21121;DHT22;12519;43.318;21.898;2022-10-04T03:28:36;14.1;92.0
21121;DHT22;12519;43.318;21.898;2022-10-04T03:33:20;14.2;91.0
21121;DHT22;12519;43.318;21.898;2022-10-04T03:38:07;14.2;91.0
21121;DHT22;12519;43.318;21.898;2022-10-04T03:42:49;14.3;90.0
21121;DHT22;12519;43.318;21.898;2022-10-04T03:47:31;14.3;90.0
21121;DHT22;12519;43.318;21.898;2022-10-04T03:52:24;14.2;90.0
21121;DHT22;12519;43.318;21.898;2022-10-04T03:57:11;14.2;90.0
21121;DHT22;12519;43.318;21.898;2022-10-04T04:02:04;14.2;89.0
21121;DHT22;12519;43.318;21.898;2022-10-04T04:07:10;14.2;89.0
21121;DHT22;12519;43.318;21.898;2022-10-04T04:12:05;14.0;89.0
21121;DHT22;12519;43.318;21.898;2022-10-04T04:17:29;14.0;89.0
21121;DHT22;12519;43.318;21.898;2022-10-04T04:22:17;13.9;90.0
21121;DHT22;12519;43.318;21.898;2022-10-04T04:27:00;13.9;90.0
21121;DHT22;12519;43.318;21.898;2022-10-04T04:31:46;14.0;90.0
21121;DHT22;12519;43.318;21.898;2022-10-04T04:36:39;14.0;90.0
21121;DHT22;12519;43.318;21.898;2022-10-04T04:41:16;14.1;90.0
21121;DHT22;12519;43.318;21.898;2022-10-04T04:45:59;14.1;90.0
21121;DHT22;12519;43.318;21.898;2022-10-04T04:50:40;14.2;89.0
21121;DHT22;12519;43.318;21.898;2022-10-04T04:55:21;14.2;89.0
21121;DHT22;12519;43.318;21.898;2022-10-04T05:00:04;14.2;89.0
21121;DHT22;12519;43.318;21.898;2022-10-04T05:05:15;14.2;89.0
21121;DHT22;12519;43.318;21.898;2022-10-04T05:09:57;14.2;89.0
21121;DHT22;12519;43.318;21.898;2022-10-04T05:14:38;14.2;89.0
21121;DHT22;12519;43.318;21.898;2022-10-04T05:19:29;14.3;89.0
21121;DHT22;12519;43.318;21.898;2022-10-04T05:24:20;14.3;89.0
21121;DHT22;12519;43.318;21.898;2022-10-04T05:29:13;14.3;89.0
21121;DHT22;12519;43.318;21.898;2022-10-04T05:33:57;14.7;91.0
21121;DHT22;12519;43.318;21.898;2022-10-04T05:38:43;14.7;91.0
21121;DHT22;12519;43.318;21.898;2022-10-04T05:43:43;15.1;94.0
21121;DHT22;12519;43.318;21.898;2022-10-04T05:48:24;15.1;94.0
21121;DHT22;12519;43.318;21.898;2022-10-04T05:53:26;15.3;91.0
21121;DHT22;12519;43.318;21.898;2022-10-04T05:58:35;15.3;91.0
21121;DHT22;12519;43.318;21.898;2022-10-04T06:04:21;15.5;89.0
21121;DHT22;12519;43.318;21.898;2022-10-04T06:09:54;14.7;89.0
21121;DHT22;12519;43.318;21.898;2022-10-04T06:15:45;14.7;89.0
21121;DHT22;12519;43.318;21.898;2022-10-04T06:21:18;13.9;90.0
21121;DHT22;12519;43.318;21.898;2022-10-04T06:26:13;13.9;90.0
21121;DHT22;12519;43.318;21.898;2022-10-04T06:31:58;13.8;90.0
21121;DHT22;12519;43.318;21.898;2022-10-04T06:38:16;13.8;90.0
21121;DHT22;12519;43.318;21.898;2022-10-04T06:44:16;13.8;90.0
21121;DHT22;12519;43.318;21.898;2022-10-04T06:50:16;13.8;91.0
21121;DHT22;12519;43.318;21.898;2022-10-04T06:56:00;13.8;91.0
21121;DHT22;12519;43.318;21.898;2022-10-04T07:01:23;13.8;92.0
21121;DHT22;12519;43.318;21.898;2022-10-04T07:06:08;13.8;92.0
21121;DHT22;12519;43.318;21.898;2022-10-04T07:10:52;14.0;90.0
21121;DHT22;12519;43.318;21.898;2022-10-04T07:15:51;14.0;90.0
21121;DHT22;12519;43.318;21.898;2022-10-04T07:20:41;14.3;89.0
21121;DHT22;12519;43.318;21.898;2022-10-04T07:25:24;14.3;89.0
21121;DHT22;12519;43.318;21.898;2022-10-04T07:30:16;14.5;88.0
21121;DHT22;12519;43.318;21.898;2022-10-04T07:35:04;14.5;88.0
21121;DHT22;12519;43.318;21.898;2022-10-04T07:40:06;14.7;87.0
21121;DHT22;12519;43.318;21.898;2022-10-04T07:45:12;14.7;87.0
21121;DHT22;12519;43.318;21.898;2022-10-04T07:49:58;15.2;88.0
21121;DHT22;12519;43.318;21.898;2022-10-04T07:54:44;15.2;88.0
21121;DHT22;12519;43.318;21.898;2022-10-04T07:59:45;15.2;88.0
21121;DHT22;12519;43.318;21.898;2022-10-04T08:04:45;15.8;90.0
21121;DHT22;12519;43.318;21.898;2022-10-04T08:09:59;15.9;87.0
21121;DHT22;12519;43.318;21.898;2022-10-04T08:15:08;15.9;87.0
21121;DHT22;12519;43.318;21.898;2022-10-04T08:20:42;16.0;85.0
21121;DHT22;12519;43.318;21.898;2022-10-04T08:25:39;16.0;85.0
21121;DHT22;12519;43.318;21.898;2022-10-04T08:31:01;15.6;86.0
21121;DHT22;12519;43.318;21.898;2022-10-04T08:36:27;15.6;86.0
21121;DHT22;12519;43.318;21.898;2022-10-04T08:42:21;15.1;87.0
21121;DHT22;12519;43.318;21.898;2022-10-04T08:53:21;15.4;88.0
21121;DHT22;12519;43.318;21.898;2022-10-04T09:01:44;15.8;89.0
21121;DHT22;12519;43.318;21.898;2022-10-04T09:08:20;15.8;89.0
21121;DHT22;12519;43.318;21.898;2022-10-04T09:14:52;16.0;87.0
21121;DHT22;12519;43.318;21.898;2022-10-04T09:20:20;16.1;85.0
21121;DHT22;12519;43.318;21.898;2022-10-04T09:25:48;16.1;85.0
21121;DHT22;12519;43.318;21.898;2022-10-04T09:31:21;16.1;85.0
21121;DHT22;12519;43.318;21.898;2022-10-04T09:39:40;16.1;85.0
21121;DHT22;12519;43.318;21.898;2022-10-04T09:46:33;16.1;85.0
21121;DHT22;12519;43.318;21.898;2022-10-04T09:52:12;16.2;84.0
21121;DHT22;12519;43.318;21.898;2022-10-04T09:57:40;16.2;84.0
21121;DHT22;12519;43.318;21.898;2022-10-04T10:03:56;16.3;83.0
21121;DHT22;12519;43.318;21.898;2022-10-04T10:09:30;16.3;83.0
21121;DHT22;12519;43.318;21.898;2022-10-04T10:15:10;16.0;83.0
21121;DHT22;12519;43.318;21.898;2022-10-04T10:20:36;15.7;83.0
21121;DHT22;12519;43.318;21.898;2022-10-04T10:26:12;15.7;83.0
21121;DHT22;12519;43.318;21.898;2022-10-04T10:31:51;16.2;86.0
21121;DHT22;12519;43.318;21.898;2022-10-04T10:37:44;16.2;86.0
21121;DHT22;12519;43.318;21.898;2022-10-04T10:43:38;16.8;90.0
21121;DHT22;12519;43.318;21.898;2022-10-04T10:49:24;16.8;90.0
21121;DHT22;12519;43.318;21.898;2022-10-04T10:55:05;17.8;87.0
21121;DHT22;12519;43.318;21.898;2022-10-04T11:03:19;18.7;83.0
21121;DHT22;12519;43.318;21.898;2022-10-04T11:09:50;18.7;83.0
21121;DHT22;12519;43.318;21.898;2022-10-04T11:16:34;18.5;81.0
21121;DHT22;12519;43.318;21.898;2022-10-04T11:24:25;18.3;79.0
21121;DHT22;12519;43.318;21.898;2022-10-04T11:31:31;18.2;79.0
21121;DHT22;12519;43.318;21.898;2022-10-04T11:39:54;18.2;79.0
21121;DHT22;12519;43.318;21.898;2022-10-04T11:46:12;18.0;80.0
21121;DHT22;12519;43.318;21.898;2022-10-04T11:52:02;17.6;79.0
21121;DHT22;12519;43.318;21.898;2022-10-04T12:00:15;17.1;78.0
21121;DHT22;12519;43.318;21.898;2022-10-04T12:05:22;17.1;78.0
21121;DHT22;12519;43.318;21.898;2022-10-04T12:12:20;16.9;78.0
21121;DHT22;12519;43.318;21.898;2022-10-04T12:19:50;16.9;78.0
21121;DHT22;12519;43.318;21.898;2022-10-04T12:25:37;16.7;78.0
21121;DHT22;12519;43.318;21.898;2022-10-04T12:31:22;16.7;78.0
21121;DHT22;12519;43.318;21.898;2022-10-04T12:36:35;16.7;78.0
21121;DHT22;12519;43.318;21.898;2022-10-04T12:42:17;16.7;78.0
21121;DHT22;12519;43.318;21.898;2022-10-04T12:47:50;16.7;78.0
21121;DHT22;12519;43.318;21.898;2022-10-04T12:53:19;17.2;79.0
21121;DHT22;12519;43.318;21.898;2022-10-04T12:58:36;17.2;79.0
21121;DHT22;12519;43.318;21.898;2022-10-04T13:04:19;17.6;81.0
21121;DHT22;12519;43.318;21.898;2022-10-04T13:09:26;17.6;81.0
21121;DHT22;12519;43.318;21.898;2022-10-04T13:15:23;17.5;79.0
21121;DHT22;12519;43.318;21.898;2022-10-04T13:20:37;17.3;78.0
21121;DHT22;12519;43.318;21.898;2022-10-04T13:25:56;17.3;78.0
21121;DHT22;12519;43.318;21.898;2022-10-04T13:31:21;17.2;77.0
21121;DHT22;12519;43.318;21.898;2022-10-04T13:36:24;17.2;77.0
21121;DHT22;12519;43.318;21.898;2022-10-04T13:42:04;17.0;76.0
21121;DHT22;12519;43.318;21.898;2022-10-04T13:48:21;17.0;76.0
21121;DHT22;12519;43.318;21.898;2022-10-04T13:53:56;17.0;76.0
21121;DHT22;12519;43.318;21.898;2022-10-04T13:59:31;17.0;76.0
21121;DHT22;12519;43.318;21.898;2022-10-04T14:05:19;17.0;77.0
21121;DHT22;12519;43.318;21.898;2022-10-04T14:13:02;17.0;76.0
21121;DHT22;12519;43.318;21.898;2022-10-04T14:19:47;17.0;76.0
21121;DHT22;12519;43.318;21.898;2022-10-04T14:29:34;17.0;76.0
21121;DHT22;12519;43.318;21.898;2022-10-04T14:35:02;17.0;76.0
21121;DHT22;12519;43.318;21.898;2022-10-04T14:40:33;17.0;76.0
21121;DHT22;12519;43.318;21.898;2022-10-04T14:46:56;17.0;77.0
21121;DHT22;12519;43.318;21.898;2022-10-04T14:52:43;17.2;77.0
21121;DHT22;12519;43.318;21.898;2022-10-04T14:58:21;17.2;77.0
21121;DHT22;12519;43.318;21.898;2022-10-04T15:03:36;17.3;77.0
21121;DHT22;12519;43.318;21.898;2022-10-04T15:09:15;17.3;77.0
21121;DHT22;12519;43.318;21.898;2022-10-04T15:14:37;17.2;77.0
21121;DHT22;12519;43.318;21.898;2022-10-04T15:20:13;17.2;77.0
21121;DHT22;12519;43.318;21.898;2022-10-04T15:25:40;17.0;78.0
21121;DHT22;12519;43.318;21.898;2022-10-04T15:30:42;17.0;78.0
21121;DHT22;12519;43.318;21.898;2022-10-04T15:36:09;17.0;78.0
21121;DHT22;12519;43.318;21.898;2022-10-04T15:41:33;16.9;78.0
21121;DHT22;12519;43.318;21.898;2022-10-04T15:46:41;16.9;78.0
21121;DHT22;12519;43.318;21.898;2022-10-04T15:51:57;16.8;79.0
21121;DHT22;12519;43.318;21.898;2022-10-04T15:57:36;16.8;79.0
21121;DHT22;12519;43.318;21.898;2022-10-04T16:03:30;16.7;79.0
21121;DHT22;12519;43.318;21.898;2022-10-04T16:09:36;16.7;79.0
21121;DHT22;12519;43.318;21.898;2022-10-04T16:14:59;16.7;80.0
21121;DHT22;12519;43.318;21.898;2022-10-04T16:20:20;16.7;80.0
21121;DHT22;12519;43.318;21.898;2022-10-04T16:25:39;16.7;81.0
21121;DHT22;12519;43.318;21.898;2022-10-04T16:30:27;16.7;81.0
21121;DHT22;12519;43.318;21.898;2022-10-04T16:36:08;16.6;81.0
21121;DHT22;12519;43.318;21.898;2022-10-04T16:41:36;16.5;82.0
21121;DHT22;12519;43.318;21.898;2022-10-04T16:46:41;16.5;82.0
21121;DHT22;12519;43.318;21.898;2022-10-04T16:51:50;16.4;82.0
21121;DHT22;12519;43.318;21.898;2022-10-04T16:57:29;16.4;82.0
21121;DHT22;12519;43.318;21.898;2022-10-04T17:02:32;16.3;82.0
21121;DHT22;12519;43.318;21.898;2022-10-04T17:08:23;16.3;82.0
21121;DHT22;12519;43.318;21.898;2022-10-04T17:13:55;16.1;82.0
21121;DHT22;12519;43.318;21.898;2022-10-04T17:19:33;16.1;82.0
21121;DHT22;12519;43.318;21.898;2022-10-04T17:24:45;15.9;82.0
21121;DHT22;12519;43.318;21.898;2022-10-04T17:30:14;15.9;82.0
21121;DHT22;12519;43.318;21.898;2022-10-04T17:35:30;15.8;83.0
21121;DHT22;12519;43.318;21.898;2022-10-04T17:40:54;15.8;83.0
21121;DHT22;12519;43.318;21.898;2022-10-04T17:46:04;15.7;83.0
21121;DHT22;12519;43.318;21.898;2022-10-04T17:51:08;15.8;84.0
21121;DHT22;12519;43.318;21.898;2022-10-04T17:56:31;15.8;84.0
21121;DHT22;12519;43.318;21.898;2022-10-04T18:01:35;15.8;84.0
21121;DHT22;12519;43.318;21.898;2022-10-04T18:06:35;15.8;84.0
21121;DHT22;12519;43.318;21.898;2022-10-04T18:11:41;15.9;84.0
21121;DHT22;12519;43.318;21.898;2022-10-04T18:16:48;15.9;84.0
21121;DHT22;12519;43.318;21.898;2022-10-04T18:21:50;16.0;84.0
21121;DHT22;12519;43.318;21.898;2022-10-04T18:26:31;16.0;84.0
21121;DHT22;12519;43.318;21.898;2022-10-04T18:31:29;16.0;84.0
21121;DHT22;12519;43.318;21.898;2022-10-04T18:36:18;16.0;84.0
21121;DHT22;12519;43.318;21.898;2022-10-04T18:41:03;16.0;84.0
21121;DHT22;12519;43.318;21.898;2022-10-04T18:46:02;15.9;84.0
21121;DHT22;12519;43.318;21.898;2022-10-04T18:50:53;15.9;84.0
21121;DHT22;12519;43.318;21.898;2022-10-04T18:55:46;15.8;85.0
21121;DHT22;12519;43.318;21.898;2022-10-04T19:00:46;15.8;85.0
21121;DHT22;12519;43.318;21.898;2022-10-04T19:05:59;15.8;86.0
21121;DHT22;12519;43.318;21.898;2022-10-04T19:11:02;15.8;86.0
21121;DHT22;12519;43.318;21.898;2022-10-04T19:16:21;15.8;86.0
21121;DHT22;12519;43.318;21.898;2022-10-04T19:21:34;15.8;87.0
21121;DHT22;12519;43.318;21.898;2022-10-04T19:26:42;15.8;87.0
21121;DHT22;12519;43.318;21.898;2022-10-04T19:31:56;15.8;87.0
21121;DHT22;12519;43.318;21.898;2022-10-04T19:37:14;15.8;87.0
21121;DHT22;12519;43.318;21.898;2022-10-04T19:42:36;15.8;87.0
21121;DHT22;12519;43.318;21.898;2022-10-04T19:47:50;15.8;87.0
21121;DHT22;12519;43.318;21.898;2022-10-04T19:52:51;15.8;87.0
21121;DHT22;12519;43.318;21.898;2022-10-04T19:57:42;15.8;87.0
21121;DHT22;12519;43.318;21.898;2022-10-04T20:02:28;15.8;87.0
21121;DHT22;12519;43.318;21.898;2022-10-04T20:07:17;15.8;87.0
21121;DHT22;12519;43.318;21.898;2022-10-04T20:12:00;15.8;87.0
21121;DHT22;12519;43.318;21.898;2022-10-04T20:17:31;15.8;87.0
21121;DHT22;12519;43.318;21.898;2022-10-04T20:23:49;15.7;87.0
21121;DHT22;12519;43.318;21.898;2022-10-04T20:28:42;15.7;87.0
21121;DHT22;12519;43.318;21.898;2022-10-04T20:33:50;15.7;88.0
21121;DHT22;12519;43.318;21.898;2022-10-04T20:38:48;15.7;88.0
21121;DHT22;12519;43.318;21.898;2022-10-04T20:43:53;15.7;88.0
21121;DHT22;12519;43.318;21.898;2022-10-04T20:48:34;15.7;88.0
21121;DHT22;12519;43.318;21.898;2022-10-04T20:53:18;15.6;89.0
21121;DHT22;12519;43.318;21.898;2022-10-04T20:58:23;15.6;89.0
21121;DHT22;12519;43.318;21.898;2022-10-04T21:03:15;15.5;90.0
21121;DHT22;12519;43.318;21.898;2022-10-04T21:08:25;15.5;90.0
21121;DHT22;12519;43.318;21.898;2022-10-04T21:13:04;15.4;90.0
21121;DHT22;12519;43.318;21.898;2022-10-04T21:17:42;15.4;90.0
21121;DHT22;12519;43.318;21.898;2022-10-04T21:22:38;15.3;91.0
21121;DHT22;12519;43.318;21.898;2022-10-04T21:27:27;15.3;91.0
21121;DHT22;12519;43.318;21.898;2022-10-04T21:32:10;15.2;91.0
21121;DHT22;12519;43.318;21.898;2022-10-04T21:36:46;15.2;91.0
21121;DHT22;12519;43.318;21.898;2022-10-04T21:41:22;15.2;91.0
21121;DHT22;12519;43.318;21.898;2022-10-04T21:45:59;15.1;92.0
21121;DHT22;12519;43.318;21.898;2022-10-04T21:50:36;15.1;92.0
21121;DHT22;12519;43.318;21.898;2022-10-04T21:55:13;15.1;92.0
21121;DHT22;12519;43.318;21.898;2022-10-04T21:59:50;15.1;92.0
21121;DHT22;12519;43.318;21.898;2022-10-04T22:04:27;15.1;92.0
21121;DHT22;12519;43.318;21.898;2022-10-04T22:09:05;15.1;92.0
21121;DHT22;12519;43.318;21.898;2022-10-04T22:13:44;15.0;92.0
21121;DHT22;12519;43.318;21.898;2022-10-04T22:18:22;15.0;92.0
21121;DHT22;12519;43.318;21.898;2022-10-04T22:23:05;15.0;92.0
21121;DHT22;12519;43.318;21.898;2022-10-04T22:27:59;15.0;92.0
21121;DHT22;12519;43.318;21.898;2022-10-04T22:32:48;14.8;92.0
21121;DHT22;12519;43.318;21.898;2022-10-04T22:37:32;14.8;92.0
21121;DHT22;12519;43.318;21.898;2022-10-04T22:42:13;14.7;92.0
21121;DHT22;12519;43.318;21.898;2022-10-04T22:46:54;14.7;92.0
21121;DHT22;12519;43.318;21.898;2022-10-04T22:51:42;14.6;93.0
21121;DHT22;12519;43.318;21.898;2022-10-04T22:56:29;14.6;93.0
21121;DHT22;12519;43.318;21.898;2022-10-04T23:01:14;14.6;93.0
21121;DHT22;12519;43.318;21.898;2022-10-04T23:05:53;14.4;93.0
21121;DHT22;12519;43.318;21.898;2022-10-04T23:10:30;14.4;93.0
21121;DHT22;12519;43.318;21.898;2022-10-04T23:15:14;14.3;94.0
21121;DHT22;12519;43.318;21.898;2022-10-04T23:20:00;14.3;94.0
21121;DHT22;12519;43.318;21.898;2022-10-04T23:24:51;14.2;94.0
21121;DHT22;12519;43.318;21.898;2022-10-04T23:29:33;14.2;94.0
21121;DHT22;12519;43.318;21.898;2022-10-04T23:34:18;14.2;93.0
21121;DHT22;12519;43.318;21.898;2022-10-04T23:39:23;14.2;93.0
21121;DHT22;12519;43.318;21.898;2022-10-04T23:44:12;14.2;93.0
21121;DHT22;12519;43.318;21.898;2022-10-04T23:48:51;14.2;93.0
21121;DHT22;12519;43.318;21.898;2022-10-04T23:53:31;14.2;93.0
21121;DHT22;12519;43.318;21.898;2022-10-04T23:58:15;14.2;93.0
